Pasio Per Formentera — ECAC — position and weather

sailwx.info

Track history (hours):
 
Tides and Currents Weather Stations Pressure Air Temp Water Temp Dewpoint Dewpoint Depression Visibility Wind Speed Wind Dir Waves Ship Positions

Pasio Per Formentera

Last reported at 2017-Oct-18 19:27 UTC. Time now 2017-Oct-18 20:29 UTC.
Position N 36°08' W 005°26'.

Length 101 m; draft 4.2 m.

Type: Ship. MMSI: 224593000.

Date/timePositionNaut miles runAvg speedWind from/ knotsBaromVisibWave heightAir tempDewpointWater temp
2017-Oct-18 19:27N 36°08' W 005°26'4 8.0
2017-Oct-18 19:00N 36°06' W 005°23'816.8
2017-Oct-18 18:30N 35°58' W 005°19'4 8.5
2017-Oct-18 18:01N 35°54' W 005°19'0 0.0
2017-Oct-18 17:31N 35°54' W 005°19'3 5.2
2017-Oct-18 17:00N 35°56' W 005°18'918.3
2017-Oct-18 16:30N 36°05' W 005°22'4 3.7
2017-Oct-18 15:21N 36°08' W 005°26'2 5.5
2017-Oct-18 15:00N 36°07' W 005°24'1414.3
2017-Oct-18 14:00N 35°54' W 005°19'0 0.0
2017-Oct-18 13:30N 35°54' W 005°19'2 4.5
2017-Oct-18 13:00N 35°56' W 005°19'918.1
2017-Oct-18 12:31N 36°04' W 005°23'5 2.7
2017-Oct-18 10:42N 36°09' W 005°26'311.2
2017-Oct-18 10:24N 36°06' W 005°23'717.6
2017-Oct-18 10:00N 35°60' W 005°20'612.4
2017-Oct-18 09:30N 35°54' W 005°19'0 0.0
2017-Oct-18 09:00N 35°54' W 005°19'0 0.0
2017-Oct-18 08:30N 35°54' W 005°19'0 0.0
2017-Oct-18 08:00N 35°54' W 005°19'0 0.0
2017-Oct-18 07:30N 35°54' W 005°19'2 3.3
2017-Oct-18 07:01N 35°55' W 005°18'917.9
2017-Oct-18 06:31N 36°04' W 005°22'6 4.9
2017-Oct-18 05:21N 36°08' W 005°26'410.6
2017-Oct-18 04:59N 36°05' W 005°23'817.0
2017-Oct-18 04:30N 35°57' W 005°21'4 7.8
2017-Oct-18 04:00N 35°54' W 005°19'0 0.0
2017-Oct-18 03:30N 35°54' W 005°19'0 0.0
2017-Oct-18 03:00N 35°54' W 005°19'0 0.0
2017-Oct-18 02:30N 35°54' W 005°19'0 0.0
2017-Oct-18 02:00N 35°54' W 005°19'0 0.0
2017-Oct-18 01:30N 35°54' W 005°19'0 0.0
2017-Oct-18 01:00N 35°54' W 005°19'0 0.0
2017-Oct-18 00:30N 35°54' W 005°19'0 0.0
2017-Oct-18 00:00N 35°54' W 005°19'0 0.0
2017-Oct-17 23:30N 35°54' W 005°19'0 0.0
2017-Oct-17 23:00N 35°54' W 005°19'2 5.0
2017-Oct-17 22:30N 35°56' W 005°19'918.1
2017-Oct-17 22:00N 36°05' W 005°23'1 0.4
2017-Oct-17 18:49N 36°04' W 005°21'516.6
2017-Oct-17 18:30N 35°59' W 005°20'5 9.9
2017-Oct-17 18:00N 35°54' W 005°19'0 0.0
2017-Oct-17 17:31N 35°54' W 005°19'3 6.0
2017-Oct-17 17:00N 35°57' W 005°20'7 3.3
2017-Oct-17 14:56N 36°04' W 005°22'716.4
2017-Oct-17 14:30N 35°57' W 005°19'3 6.4
2017-Oct-17 14:00N 35°54' W 005°19'0 0.0
2017-Oct-17 13:30N 35°54' W 005°19'3 5.2
2017-Oct-17 13:00N 35°56' W 005°19'7 2.5
2017-Oct-17 10:13N 36°03' W 005°22'417.3
2017-Oct-17 10:00N 35°59' W 005°21'611.3
2017-Oct-17 09:30N 35°54' W 005°19'0 0.0
2017-Oct-17 09:00N 35°54' W 005°19'0 0.0
2017-Oct-17 08:30N 35°54' W 005°19'0 0.0
2017-Oct-17 08:00N 35°54' W 005°19'0 0.0
2017-Oct-17 07:30N 35°54' W 005°19'3 5.6
2017-Oct-17 07:00N 35°57' W 005°19'13 8.3
2017-Oct-17 05:29N 36°08' W 005°26'4 7.5
2017-Oct-17 05:00N 36°05' W 005°23'816.5
2017-Oct-17 04:31N 35°57' W 005°20'4 7.6
2017-Oct-17 04:00N 35°54' W 005°19'0 0.0
2017-Oct-17 03:30N 35°54' W 005°19'0 0.0
2017-Oct-17 03:00N 35°54' W 005°19'0 0.0
2017-Oct-17 02:30N 35°54' W 005°19'0 0.0
2017-Oct-17 02:00N 35°54' W 005°19'0 0.0
2017-Oct-17 01:30N 35°54' W 005°19'0 0.0
2017-Oct-17 01:00N 35°54' W 005°19'0 0.0
2017-Oct-17 00:30N 35°54' W 005°19'0 0.0
2017-Oct-17 00:00N 35°54' W 005°19'0 0.0
2017-Oct-16 23:30N 35°54' W 005°19'0 0.0
2017-Oct-16 23:00N 35°54' W 005°19'4 7.8
2017-Oct-16 22:30N 35°58' W 005°19'4 1.0
2017-Oct-16 18:41N 36°01' W 005°21'316.8
2017-Oct-16 18:30N 35°58' W 005°20'5 9.0
2017-Oct-16 18:00N 35°54' W 005°19'0 0.0
2017-Oct-16 17:30N 35°54' W 005°19'2 3.7
2017-Oct-16 17:00N 35°56' W 005°19'917.3
2017-Oct-16 16:30N 36°04' W 005°23'5 4.3
2017-Oct-16 15:16N 36°08' W 005°26'612.0
2017-Oct-16 14:47N 36°04' W 005°22'516.4
2017-Oct-16 14:30N 35°59' W 005°20'6 5.7
2017-Oct-16 13:30N 35°54' W 005°19'2 3.4
2017-Oct-16 13:01N 35°55' W 005°19'816.9
2017-Oct-16 12:30N 36°03' W 005°22'1 0.4
2017-Oct-16 10:22N 36°04' W 005°22'616.7
2017-Oct-16 10:00N 35°59' W 005°20'5 9.8
2017-Oct-16 09:30N 35°54' W 005°19'0 0.0
2017-Oct-16 09:00N 35°54' W 005°19'0 0.0
2017-Oct-16 08:30N 35°54' W 005°19'0 0.0
2017-Oct-16 08:01N 35°54' W 005°19'0 0.0
2017-Oct-16 07:30N 35°54' W 005°19'3 5.7
2017-Oct-16 07:00N 35°57' W 005°20'12 7.5
2017-Oct-16 05:21N 36°08' W 005°26'3 7.5
2017-Oct-16 04:58N 36°06' W 005°23'716.0
2017-Oct-16 04:31N 35°59' W 005°20'611.0
2017-Oct-16 04:00N 35°54' W 005°19'0 0.0
2017-Oct-16 03:31N 35°54' W 005°19'0 0.0
2017-Oct-16 03:00N 35°54' W 005°19'0 0.0
2017-Oct-16 02:30N 35°54' W 005°19'0 0.0
2017-Oct-16 02:00N 35°54' W 005°19'0 0.0
2017-Oct-16 01:30N 35°54' W 005°19'0 0.0
2017-Oct-16 01:00N 35°54' W 005°19'0 0.0
2017-Oct-16 00:30N 35°54' W 005°19'0 0.0
2017-Oct-16 00:00N 35°54' W 005°19'0 0.0
2017-Oct-15 23:30N 35°54' W 005°19'0 0.0
2017-Oct-15 23:00N 35°54' W 005°19'3 6.3
2017-Oct-15 22:30N 35°57' W 005°20'917.2
2017-Oct-15 22:00N 36°05' W 005°23'4 1.5
2017-Oct-15 19:32N 36°08' W 005°26'0 2.7
2017-Oct-15 19:30N 36°08' W 005°26'510.4
2017-Oct-15 19:00N 36°04' W 005°22'816.1
2017-Oct-15 18:30N 35°56' W 005°19'3 5.4
2017-Oct-15 18:00N 35°54' W 005°19'0 0.0
2017-Oct-15 17:30N 35°54' W 005°19'4 8.6
2017-Oct-15 17:00N 35°58' W 005°19'5 2.3
2017-Oct-15 14:49N 36°02' W 005°22'911.1
2017-Oct-15 14:00N 35°54' W 005°19'0 0.0
2017-Oct-15 13:30N 35°54' W 005°19'3 5.2
2017-Oct-15 13:00N 35°56' W 005°20'4 1.3
2017-Oct-15 10:06N 36°00' W 005°20'117.6
2017-Oct-15 10:00N 35°59' W 005°20'5 9.8
2017-Oct-15 09:30N 35°54' W 005°19'0 0.0
2017-Oct-15 09:00N 35°54' W 005°19'0 0.0
2017-Oct-15 08:31N 35°54' W 005°19'0 0.0
2017-Oct-15 08:00N 35°54' W 005°19'0 0.0
2017-Oct-15 07:31N 35°54' W 005°19'2 4.5
2017-Oct-15 07:00N 35°56' W 005°19'7 3.2
2017-Oct-15 04:45N 36°03' W 005°22'417.0
2017-Oct-15 04:30N 35°59' W 005°21'510.9
2017-Oct-15 04:00N 35°54' W 005°19'0 0.0
2017-Oct-15 03:30N 35°54' W 005°19'0 0.0
2017-Oct-15 03:00N 35°54' W 005°19'0 0.0
2017-Oct-15 02:30N 35°54' W 005°19'0 0.0
2017-Oct-15 02:00N 35°54' W 005°19'0 0.0
2017-Oct-15 01:30N 35°54' W 005°19'0 0.0
2017-Oct-15 01:00N 35°54' W 005°19'0 0.0
2017-Oct-15 00:30N 35°54' W 005°19'0 0.0
2017-Oct-15 00:00N 35°54' W 005°19'0 0.0
2017-Oct-14 23:30N 35°54' W 005°19'0 0.0
2017-Oct-14 23:00N 35°54' W 005°19'2 3.0
2017-Oct-14 22:30N 35°55' W 005°19'918.6
2017-Oct-14 22:00N 36°04' W 005°22'5 9.3
2017-Oct-14 21:28N 36°08' W 005°26'0 0.0
2017-Oct-14 20:37N 36°08' W 005°26'0 0.0
2017-Oct-14 20:30N 36°08' W 005°26'8 4.4
2017-Oct-14 18:37N 36°01' W 005°21'216.4
2017-Oct-14 18:30N 35°59' W 005°20'510.6
2017-Oct-14 18:00N 35°54' W 005°19'0 0.0
2017-Oct-14 17:30N 35°54' W 005°19'1 2.1
2017-Oct-14 17:00N 35°55' W 005°19'1118.3
2017-Oct-14 16:25N 36°05' W 005°23'4 3.4
2017-Oct-14 15:21N 36°08' W 005°26'4 9.5
2017-Oct-14 14:55N 36°05' W 005°22'717.4
2017-Oct-14 14:30N 35°58' W 005°20'4 9.0
2017-Oct-14 14:00N 35°54' W 005°19'0 0.0
2017-Oct-14 13:30N 35°54' W 005°19'4 7.3
2017-Oct-14 13:00N 35°57' W 005°20'4 1.3
2017-Oct-14 10:09N 36°01' W 005°21'317.4
2017-Oct-14 10:00N 35°58' W 005°20'5 9.4
2017-Oct-14 09:30N 35°54' W 005°19'0 0.0
2017-Oct-14 09:00N 35°54' W 005°19'0 0.0
2017-Oct-14 08:30N 35°54' W 005°19'0 0.0
2017-Oct-14 08:00N 35°54' W 005°19'0 0.0
2017-Oct-14 07:30N 35°54' W 005°19'5 9.6
2017-Oct-14 07:01N 35°58' W 005°21'4 2.2
2017-Oct-14 05:06N 36°02' W 005°22'217.2
2017-Oct-14 04:59N 36°00' W 005°21'714.8
2017-Oct-14 04:30N 35°54' W 005°19'0 0.5
2017-Oct-14 04:00N 35°54' W 005°19'0 0.0
2017-Oct-14 03:30N 35°54' W 005°19'0 0.0
2017-Oct-14 03:00N 35°54' W 005°19'0 0.0
2017-Oct-14 02:30N 35°54' W 005°19'0 0.0
2017-Oct-14 02:00N 35°54' W 005°19'0 0.0
2017-Oct-14 01:30N 35°54' W 005°19'0 0.0
2017-Oct-14 01:00N 35°54' W 005°19'0 0.0
2017-Oct-14 00:30N 35°54' W 005°19'0 0.0
2017-Oct-14 00:00N 35°54' W 005°19'0 0.0
2017-Oct-13 23:30N 35°54' W 005°19'0 0.0
2017-Oct-13 23:00N 35°54' W 005°19'2 3.5
2017-Oct-13 22:31N 35°55' W 005°19'918.2
2017-Oct-13 22:01N 36°04' W 005°23'5 3.5
2017-Oct-13 20:40N 36°08' W 005°26'0 0.3
2017-Oct-13 19:18N 36°08' W 005°26'4 9.3
2017-Oct-13 18:55N 36°06' W 005°23'717.0
2017-Oct-13 18:30N 35°59' W 005°20'510.5
2017-Oct-13 18:00N 35°54' W 005°19'0 0.0
2017-Oct-13 17:30N 35°54' W 005°19'3 6.4
2017-Oct-13 17:00N 35°57' W 005°20'6 2.5
2017-Oct-13 14:41N 36°03' W 005°21'317.1
2017-Oct-13 14:30N 35°60' W 005°20'612.1
2017-Oct-13 14:00N 35°54' W 005°19'0 0.0
2017-Oct-13 13:30N 35°54' W 005°19'2 4.6
2017-Oct-13 13:00N 35°56' W 005°19'8 2.9
2017-Oct-13 10:13N 36°04' W 005°21'417.5
2017-Oct-13 10:00N 36°01' W 005°19'713.8
2017-Oct-13 09:30N 35°54' W 005°19'0 0.0
2017-Oct-13 07:56N 35°54' W 005°19'0 0.0
2017-Oct-13 07:30N 35°54' W 005°19'612.0
2017-Oct-13 07:00N 35°59' W 005°21'917.7
2017-Oct-13 06:29N 36°08' W 005°24'2 2.1
2017-Oct-13 05:45N 36°08' W 005°26'0 0.0
2017-Oct-13 05:23N 36°08' W 005°26'2 5.7
2017-Oct-13 05:00N 36°07' W 005°24'918.0
2017-Oct-13 04:31N 35°59' W 005°20'510.0
2017-Oct-13 04:00N 35°54' W 005°19'0 0.0
2017-Oct-13 03:30N 35°54' W 005°19'0 0.0
2017-Oct-13 03:00N 35°54' W 005°19'0 0.0
2017-Oct-13 02:30N 35°54' W 005°19'0 0.0
2017-Oct-13 02:00N 35°54' W 005°19'0 0.0
2017-Oct-13 01:30N 35°54' W 005°19'0 0.0
2017-Oct-13 01:00N 35°54' W 005°19'0 0.0
2017-Oct-13 00:30N 35°54' W 005°19'0 0.0
2017-Oct-13 00:00N 35°54' W 005°19'0 0.0
2017-Oct-12 23:30N 35°54' W 005°19'0 0.0
2017-Oct-12 23:00N 35°54' W 005°19'2 3.4
2017-Oct-12 22:31N 35°55' W 005°19'918.0
2017-Oct-12 22:00N 36°04' W 005°22'510.3
2017-Oct-12 21:30N 36°08' W 005°26'0 0.0
2017-Oct-12 20:39N 36°08' W 005°26'0 0.0
2017-Oct-12 20:30N 36°08' W 005°26'0 0.0
2017-Oct-12 19:55N 36°08' W 005°26'0 0.0
2017-Oct-12 19:28N 36°08' W 005°26'4 6.0
2017-Oct-12 18:49N 36°05' W 005°23'517.1
2017-Oct-12 18:30N 35°60' W 005°21'612.5
2017-Oct-12 18:00N 35°54' W 005°19'0 0.0
2017-Oct-12 17:30N 35°54' W 005°19'2 4.1
2017-Oct-12 17:00N 35°56' W 005°19'1310.6
2017-Oct-12 15:44N 36°08' W 005°26'0 0.0
2017-Oct-12 15:27N 36°08' W 005°26'3 5.3
2017-Oct-12 14:53N 36°06' W 005°23'717.6
2017-Oct-12 14:30N 35°60' W 005°20'612.5
2017-Oct-12 14:00N 35°54' W 005°19'0 0.0
2017-Oct-12 13:30N 35°54' W 005°19'2 4.4
2017-Oct-12 13:00N 35°56' W 005°19'13 7.0
2017-Oct-12 11:05N 36°08' W 005°26'1 7.5
2017-Oct-12 11:00N 36°09' W 005°26'3 5.6
2017-Oct-12 10:23N 36°06' W 005°23'717.5
2017-Oct-12 10:00N 35°60' W 005°21'612.3
2017-Oct-12 09:30N 35°54' W 005°19'0 0.0
2017-Oct-12 09:00N 35°54' W 005°19'0 0.0
2017-Oct-12 08:30N 35°54' W 005°19'0 0.0
2017-Oct-12 08:00N 35°54' W 005°19'0 0.0
2017-Oct-12 07:30N 35°54' W 005°19'2 4.1
2017-Oct-12 07:00N 35°56' W 005°19'13 8.2
2017-Oct-12 05:23N 36°08' W 005°26'2 5.6
2017-Oct-12 05:00N 36°07' W 005°24'918.1
2017-Oct-12 04:30N 35°59' W 005°20'510.5
2017-Oct-12 04:01N 35°54' W 005°19'0 0.0
2017-Oct-12 03:30N 35°54' W 005°19'0 0.0
2017-Oct-12 03:01N 35°54' W 005°19'0 0.0
2017-Oct-12 02:31N 35°54' W 005°19'0 0.0
2017-Oct-12 02:00N 35°54' W 005°19'0 0.0
2017-Oct-12 01:31N 35°54' W 005°19'0 0.0
2017-Oct-12 01:00N 35°54' W 005°19'0 0.0
2017-Oct-12 00:30N 35°54' W 005°19'0 0.0
2017-Oct-12 00:01N 35°54' W 005°19'0 0.0
2017-Oct-11 23:30N 35°54' W 005°19'0 0.0
2017-Oct-11 23:00N 35°54' W 005°19'1 2.7
2017-Oct-11 22:30N 35°55' W 005°19'917.7
2017-Oct-11 22:00N 36°03' W 005°23'510.5
2017-Oct-11 21:30N 36°08' W 005°26'0 0.1
2017-Oct-11 19:42N 36°08' W 005°26'9 8.0
2017-Oct-11 18:32N 35°60' W 005°21'118.3
2017-Oct-11 18:30N 35°59' W 005°21'611.1
2017-Oct-11 18:00N 35°54' W 005°19'0 0.0
2017-Oct-11 17:30N 35°54' W 005°19'3 6.5
2017-Oct-11 17:00N 35°57' W 005°20'3 0.2
2017-Oct-11 00:00N 35°54' W 005°19'0 0.0
2017-Oct-10 23:30N 35°54' W 005°19'0 0.0
2017-Oct-10 23:00N 35°54' W 005°19'2 3.8
2017-Oct-10 22:31N 35°56' W 005°19'917.1
2017-Oct-10 22:00N 36°04' W 005°23'5 2.2
2017-Oct-10 19:43N 36°08' W 005°26'0 0.0
2017-Oct-10 19:27N 36°08' W 005°26'2 5.5
2017-Oct-10 19:00N 36°07' W 005°23'917.5
2017-Oct-10 18:31N 35°59' W 005°20'5 9.9
2017-Oct-10 18:00N 35°54' W 005°19'0 0.0
2017-Oct-10 17:31N 35°54' W 005°19'3 5.2
2017-Oct-10 17:01N 35°56' W 005°19'6 2.8
2017-Oct-10 14:43N 36°03' W 005°22'912.7
2017-Oct-10 14:00N 35°54' W 005°19'0 0.0
2017-Oct-10 13:30N 35°54' W 005°19'3 5.1
2017-Oct-10 13:00N 35°56' W 005°19'918.1
2017-Oct-10 12:30N 36°05' W 005°23'4 2.5
2017-Oct-10 10:48N 36°08' W 005°26'5 8.8
2017-Oct-10 10:15N 36°04' W 005°22'417.7
2017-Oct-10 10:00N 36°00' W 005°21'713.3
2017-Oct-10 09:31N 35°54' W 005°19'  
Track history (hours):
 
Tides and Currents Weather Stations Pressure Air Temp Water Temp Dewpoint Dewpoint Depression Visibility Wind Speed Wind Dir Waves Ship Positions

Pasio Per Formentera

Last reported at 2017-Oct-18 19:27 UTC. Time now 2017-Oct-18 20:29 UTC.
Position N 36°08' W 005°26'.

Length 101 m; draft 4.2 m.

Type: Ship. MMSI: 224593000.

Date/timePositionNaut miles runAvg speedWind from/ knotsBaromVisibWave heightAir tempDewpointWater temp
2017-Oct-18 19:27N 36°08' W 005°26'4 8.0
2017-Oct-18 19:00N 36°06' W 005°23'816.8
2017-Oct-18 18:30N 35°58' W 005°19'4 8.5
2017-Oct-18 18:01N 35°54' W 005°19'0 0.0
2017-Oct-18 17:31N 35°54' W 005°19'3 5.2
2017-Oct-18 17:00N 35°56' W 005°18'918.3
2017-Oct-18 16:30N 36°05' W 005°22'4 3.7
2017-Oct-18 15:21N 36°08' W 005°26'2 5.5
2017-Oct-18 15:00N 36°07' W 005°24'1414.3
2017-Oct-18 14:00N 35°54' W 005°19'0 0.0
2017-Oct-18 13:30N 35°54' W 005°19'2 4.5
2017-Oct-18 13:00N 35°56' W 005°19'918.1
2017-Oct-18 12:31N 36°04' W 005°23'5 2.7
2017-Oct-18 10:42N 36°09' W 005°26'311.2
2017-Oct-18 10:24N 36°06' W 005°23'717.6
2017-Oct-18 10:00N 35°60' W 005°20'612.4
2017-Oct-18 09:30N 35°54' W 005°19'0 0.0
2017-Oct-18 09:00N 35°54' W 005°19'0 0.0
2017-Oct-18 08:30N 35°54' W 005°19'0 0.0
2017-Oct-18 08:00N 35°54' W 005°19'0 0.0
2017-Oct-18 07:30N 35°54' W 005°19'2 3.3
2017-Oct-18 07:01N 35°55' W 005°18'917.9
2017-Oct-18 06:31N 36°04' W 005°22'6 4.9
2017-Oct-18 05:21N 36°08' W 005°26'410.6
2017-Oct-18 04:59N 36°05' W 005°23'817.0
2017-Oct-18 04:30N 35°57' W 005°21'4 7.8
2017-Oct-18 04:00N 35°54' W 005°19'0 0.0
2017-Oct-18 03:30N 35°54' W 005°19'0 0.0
2017-Oct-18 03:00N 35°54' W 005°19'0 0.0
2017-Oct-18 02:30N 35°54' W 005°19'0 0.0
2017-Oct-18 02:00N 35°54' W 005°19'0 0.0
2017-Oct-18 01:30N 35°54' W 005°19'0 0.0
2017-Oct-18 01:00N 35°54' W 005°19'0 0.0
2017-Oct-18 00:30N 35°54' W 005°19'0 0.0
2017-Oct-18 00:00N 35°54' W 005°19'0 0.0
2017-Oct-17 23:30N 35°54' W 005°19'0 0.0
2017-Oct-17 23:00N 35°54' W 005°19'2 5.0
2017-Oct-17 22:30N 35°56' W 005°19'918.1
2017-Oct-17 22:00N 36°05' W 005°23'1 0.4
2017-Oct-17 18:49N 36°04' W 005°21'516.6
2017-Oct-17 18:30N 35°59' W 005°20'5 9.9
2017-Oct-17 18:00N 35°54' W 005°19'0 0.0
2017-Oct-17 17:31N 35°54' W 005°19'3 6.0
2017-Oct-17 17:00N 35°57' W 005°20'7 3.3
2017-Oct-17 14:56N 36°04' W 005°22'716.4
2017-Oct-17 14:30N 35°57' W 005°19'3 6.4
2017-Oct-17 14:00N 35°54' W 005°19'0 0.0
2017-Oct-17 13:30N 35°54' W 005°19'3 5.2
2017-Oct-17 13:00N 35°56' W 005°19'7 2.5
2017-Oct-17 10:13N 36°03' W 005°22'417.3
2017-Oct-17 10:00N 35°59' W 005°21'611.3
2017-Oct-17 09:30N 35°54' W 005°19'0 0.0
2017-Oct-17 09:00N 35°54' W 005°19'0 0.0
2017-Oct-17 08:30N 35°54' W 005°19'0 0.0
2017-Oct-17 08:00N 35°54' W 005°19'0 0.0
2017-Oct-17 07:30N 35°54' W 005°19'3 5.6
2017-Oct-17 07:00N 35°57' W 005°19'13 8.3
2017-Oct-17 05:29N 36°08' W 005°26'4 7.5
2017-Oct-17 05:00N 36°05' W 005°23'816.5
2017-Oct-17 04:31N 35°57' W 005°20'4 7.6
2017-Oct-17 04:00N 35°54' W 005°19'0 0.0
2017-Oct-17 03:30N 35°54' W 005°19'0 0.0
2017-Oct-17 03:00N 35°54' W 005°19'0 0.0
2017-Oct-17 02:30N 35°54' W 005°19'0 0.0
2017-Oct-17 02:00N 35°54' W 005°19'0 0.0
2017-Oct-17 01:30N 35°54' W 005°19'0 0.0
2017-Oct-17 01:00N 35°54' W 005°19'0 0.0
2017-Oct-17 00:30N 35°54' W 005°19'0 0.0
2017-Oct-17 00:00N 35°54' W 005°19'0 0.0
2017-Oct-16 23:30N 35°54' W 005°19'0 0.0
2017-Oct-16 23:00N 35°54' W 005°19'4 7.8
2017-Oct-16 22:30N 35°58' W 005°19'4 1.0
2017-Oct-16 18:41N 36°01' W 005°21'316.8
2017-Oct-16 18:30N 35°58' W 005°20'5 9.0
2017-Oct-16 18:00N 35°54' W 005°19'0 0.0
2017-Oct-16 17:30N 35°54' W 005°19'2 3.7
2017-Oct-16 17:00N 35°56' W 005°19'917.3
2017-Oct-16 16:30N 36°04' W 005°23'5 4.3
2017-Oct-16 15:16N 36°08' W 005°26'612.0
2017-Oct-16 14:47N 36°04' W 005°22'516.4
2017-Oct-16 14:30N 35°59' W 005°20'6 5.7
2017-Oct-16 13:30N 35°54' W 005°19'2 3.4
2017-Oct-16 13:01N 35°55' W 005°19'816.9
2017-Oct-16 12:30N 36°03' W 005°22'1 0.4
2017-Oct-16 10:22N 36°04' W 005°22'616.7
2017-Oct-16 10:00N 35°59' W 005°20'5 9.8
2017-Oct-16 09:30N 35°54' W 005°19'0 0.0
2017-Oct-16 09:00N 35°54' W 005°19'0 0.0
2017-Oct-16 08:30N 35°54' W 005°19'0 0.0
2017-Oct-16 08:01N 35°54' W 005°19'0 0.0
2017-Oct-16 07:30N 35°54' W 005°19'3 5.7
2017-Oct-16 07:00N 35°57' W 005°20'12 7.5
2017-Oct-16 05:21N 36°08' W 005°26'3 7.5
2017-Oct-16 04:58N 36°06' W 005°23'716.0
2017-Oct-16 04:31N 35°59' W 005°20'611.0
2017-Oct-16 04:00N 35°54' W 005°19'0 0.0
2017-Oct-16 03:31N 35°54' W 005°19'0 0.0
2017-Oct-16 03:00N 35°54' W 005°19'0 0.0
2017-Oct-16 02:30N 35°54' W 005°19'0 0.0
2017-Oct-16 02:00N 35°54' W 005°19'0 0.0
2017-Oct-16 01:30N 35°54' W 005°19'0 0.0
2017-Oct-16 01:00N 35°54' W 005°19'0 0.0
2017-Oct-16 00:30N 35°54' W 005°19'0 0.0
2017-Oct-16 00:00N 35°54' W 005°19'0 0.0
2017-Oct-15 23:30N 35°54' W 005°19'0 0.0
2017-Oct-15 23:00N 35°54' W 005°19'3 6.3
2017-Oct-15 22:30N 35°57' W 005°20'917.2
2017-Oct-15 22:00N 36°05' W 005°23'4 1.5
2017-Oct-15 19:32N 36°08' W 005°26'0 2.7
2017-Oct-15 19:30N 36°08' W 005°26'510.4
2017-Oct-15 19:00N 36°04' W 005°22'816.1
2017-Oct-15 18:30N 35°56' W 005°19'3 5.4
2017-Oct-15 18:00N 35°54' W 005°19'0 0.0
2017-Oct-15 17:30N 35°54' W 005°19'4 8.6
2017-Oct-15 17:00N 35°58' W 005°19'5 2.3
2017-Oct-15 14:49N 36°02' W 005°22'911.1
2017-Oct-15 14:00N 35°54' W 005°19'0 0.0
2017-Oct-15 13:30N 35°54' W 005°19'3 5.2
2017-Oct-15 13:00N 35°56' W 005°20'4 1.3
2017-Oct-15 10:06N 36°00' W 005°20'117.6
2017-Oct-15 10:00N 35°59' W 005°20'5 9.8
2017-Oct-15 09:30N 35°54' W 005°19'0 0.0
2017-Oct-15 09:00N 35°54' W 005°19'0 0.0
2017-Oct-15 08:31N 35°54' W 005°19'0 0.0
2017-Oct-15 08:00N 35°54' W 005°19'0 0.0
2017-Oct-15 07:31N 35°54' W 005°19'2 4.5
2017-Oct-15 07:00N 35°56' W 005°19'7 3.2
2017-Oct-15 04:45N 36°03' W 005°22'417.0
2017-Oct-15 04:30N 35°59' W 005°21'510.9
2017-Oct-15 04:00N 35°54' W 005°19'0 0.0
2017-Oct-15 03:30N 35°54' W 005°19'0 0.0
2017-Oct-15 03:00N 35°54' W 005°19'0 0.0
2017-Oct-15 02:30N 35°54' W 005°19'0 0.0
2017-Oct-15 02:00N 35°54' W 005°19'0 0.0
2017-Oct-15 01:30N 35°54' W 005°19'0 0.0
2017-Oct-15 01:00N 35°54' W 005°19'0 0.0
2017-Oct-15 00:30N 35°54' W 005°19'0 0.0
2017-Oct-15 00:00N 35°54' W 005°19'0 0.0
2017-Oct-14 23:30N 35°54' W 005°19'0 0.0
2017-Oct-14 23:00N 35°54' W 005°19'2 3.0
2017-Oct-14 22:30N 35°55' W 005°19'918.6
2017-Oct-14 22:00N 36°04' W 005°22'5 9.3
2017-Oct-14 21:28N 36°08' W 005°26'0 0.0
2017-Oct-14 20:37N 36°08' W 005°26'0 0.0
2017-Oct-14 20:30N 36°08' W 005°26'8 4.4
2017-Oct-14 18:37N 36°01' W 005°21'216.4
2017-Oct-14 18:30N 35°59' W 005°20'510.6
2017-Oct-14 18:00N 35°54' W 005°19'0 0.0
2017-Oct-14 17:30N 35°54' W 005°19'1 2.1
2017-Oct-14 17:00N 35°55' W 005°19'1118.3
2017-Oct-14 16:25N 36°05' W 005°23'4 3.4
2017-Oct-14 15:21N 36°08' W 005°26'4 9.5
2017-Oct-14 14:55N 36°05' W 005°22'717.4
2017-Oct-14 14:30N 35°58' W 005°20'4 9.0
2017-Oct-14 14:00N 35°54' W 005°19'0 0.0
2017-Oct-14 13:30N 35°54' W 005°19'4 7.3
2017-Oct-14 13:00N 35°57' W 005°20'4 1.3
2017-Oct-14 10:09N 36°01' W 005°21'317.4
2017-Oct-14 10:00N 35°58' W 005°20'5 9.4
2017-Oct-14 09:30N 35°54' W 005°19'0 0.0
2017-Oct-14 09:00N 35°54' W 005°19'0 0.0
2017-Oct-14 08:30N 35°54' W 005°19'0 0.0
2017-Oct-14 08:00N 35°54' W 005°19'0 0.0
2017-Oct-14 07:30N 35°54' W 005°19'5 9.6
2017-Oct-14 07:01N 35°58' W 005°21'4 2.2
2017-Oct-14 05:06N 36°02' W 005°22'217.2
2017-Oct-14 04:59N 36°00' W 005°21'714.8
2017-Oct-14 04:30N 35°54' W 005°19'0 0.5
2017-Oct-14 04:00N 35°54' W 005°19'0 0.0
2017-Oct-14 03:30N 35°54' W 005°19'0 0.0
2017-Oct-14 03:00N 35°54' W 005°19'0 0.0
2017-Oct-14 02:30N 35°54' W 005°19'0 0.0
2017-Oct-14 02:00N 35°54' W 005°19'0 0.0
2017-Oct-14 01:30N 35°54' W 005°19'0 0.0
2017-Oct-14 01:00N 35°54' W 005°19'0 0.0
2017-Oct-14 00:30N 35°54' W 005°19'0 0.0
2017-Oct-14 00:00N 35°54' W 005°19'0 0.0
2017-Oct-13 23:30N 35°54' W 005°19'0 0.0
2017-Oct-13 23:00N 35°54' W 005°19'2 3.5
2017-Oct-13 22:31N 35°55' W 005°19'918.2
2017-Oct-13 22:01N 36°04' W 005°23'5 3.5
2017-Oct-13 20:40N 36°08' W 005°26'0 0.3
2017-Oct-13 19:18N 36°08' W 005°26'4 9.3
2017-Oct-13 18:55N 36°06' W 005°23'717.0
2017-Oct-13 18:30N 35°59' W 005°20'510.5
2017-Oct-13 18:00N 35°54' W 005°19'0 0.0
2017-Oct-13 17:30N 35°54' W 005°19'3 6.4
2017-Oct-13 17:00N 35°57' W 005°20'6 2.5
2017-Oct-13 14:41N 36°03' W 005°21'317.1
2017-Oct-13 14:30N 35°60' W 005°20'612.1
2017-Oct-13 14:00N 35°54' W 005°19'0 0.0
2017-Oct-13 13:30N 35°54' W 005°19'2 4.6
2017-Oct-13 13:00N 35°56' W 005°19'8 2.9
2017-Oct-13 10:13N 36°04' W 005°21'417.5
2017-Oct-13 10:00N 36°01' W 005°19'713.8
2017-Oct-13 09:30N 35°54' W 005°19'0 0.0
2017-Oct-13 07:56N 35°54' W 005°19'0 0.0
2017-Oct-13 07:30N 35°54' W 005°19'612.0
2017-Oct-13 07:00N 35°59' W 005°21'917.7
2017-Oct-13 06:29N 36°08' W 005°24'2 2.1
2017-Oct-13 05:45N 36°08' W 005°26'0 0.0
2017-Oct-13 05:23N 36°08' W 005°26'2 5.7
2017-Oct-13 05:00N 36°07' W 005°24'918.0
2017-Oct-13 04:31N 35°59' W 005°20'510.0
2017-Oct-13 04:00N 35°54' W 005°19'0 0.0
2017-Oct-13 03:30N 35°54' W 005°19'0 0.0
2017-Oct-13 03:00N 35°54' W 005°19'0 0.0
2017-Oct-13 02:30N 35°54' W 005°19'0 0.0
2017-Oct-13 02:00N 35°54' W 005°19'0 0.0
2017-Oct-13 01:30N 35°54' W 005°19'0 0.0
2017-Oct-13 01:00N 35°54' W 005°19'0 0.0
2017-Oct-13 00:30N 35°54' W 005°19'0 0.0
2017-Oct-13 00:00N 35°54' W 005°19'0 0.0
2017-Oct-12 23:30N 35°54' W 005°19'0 0.0
2017-Oct-12 23:00N 35°54' W 005°19'2 3.4
2017-Oct-12 22:31N 35°55' W 005°19'918.0
2017-Oct-12 22:00N 36°04' W 005°22'510.3
2017-Oct-12 21:30N 36°08' W 005°26'0 0.0
2017-Oct-12 20:39N 36°08' W 005°26'0 0.0
2017-Oct-12 20:30N 36°08' W 005°26'0 0.0
2017-Oct-12 19:55N 36°08' W 005°26'0 0.0
2017-Oct-12 19:28N 36°08' W 005°26'4 6.0
2017-Oct-12 18:49N 36°05' W 005°23'517.1
2017-Oct-12 18:30N 35°60' W 005°21'612.5
2017-Oct-12 18:00N 35°54' W 005°19'0 0.0
2017-Oct-12 17:30N 35°54' W 005°19'2 4.1
2017-Oct-12 17:00N 35°56' W 005°19'1310.6
2017-Oct-12 15:44N 36°08' W 005°26'0 0.0
2017-Oct-12 15:27N 36°08' W 005°26'3 5.3
2017-Oct-12 14:53N 36°06' W 005°23'717.6
2017-Oct-12 14:30N 35°60' W 005°20'612.5
2017-Oct-12 14:00N 35°54' W 005°19'0 0.0
2017-Oct-12 13:30N 35°54' W 005°19'2 4.4
2017-Oct-12 13:00N 35°56' W 005°19'13 7.0
2017-Oct-12 11:05N 36°08' W 005°26'1 7.5
2017-Oct-12 11:00N 36°09' W 005°26'3 5.6
2017-Oct-12 10:23N 36°06' W 005°23'717.5
2017-Oct-12 10:00N 35°60' W 005°21'612.3
2017-Oct-12 09:30N 35°54' W 005°19'0 0.0
2017-Oct-12 09:00N 35°54' W 005°19'0 0.0
2017-Oct-12 08:30N 35°54' W 005°19'0 0.0
2017-Oct-12 08:00N 35°54' W 005°19'0 0.0
2017-Oct-12 07:30N 35°54' W 005°19'2 4.1
2017-Oct-12 07:00N 35°56' W 005°19'13 8.2
2017-Oct-12 05:23N 36°08' W 005°26'2 5.6
2017-Oct-12 05:00N 36°07' W 005°24'918.1
2017-Oct-12 04:30N 35°59' W 005°20'510.5
2017-Oct-12 04:01N 35°54' W 005°19'0 0.0
2017-Oct-12 03:30N 35°54' W 005°19'0 0.0
2017-Oct-12 03:01N 35°54' W 005°19'0 0.0
2017-Oct-12 02:31N 35°54' W 005°19'0 0.0
2017-Oct-12 02:00N 35°54' W 005°19'0 0.0
2017-Oct-12 01:31N 35°54' W 005°19'0 0.0
2017-Oct-12 01:00N 35°54' W 005°19'0 0.0
2017-Oct-12 00:30N 35°54' W 005°19'0 0.0
2017-Oct-12 00:01N 35°54' W 005°19'0 0.0
2017-Oct-11 23:30N 35°54' W 005°19'0 0.0
2017-Oct-11 23:00N 35°54' W 005°19'1 2.7
2017-Oct-11 22:30N 35°55' W 005°19'917.7
2017-Oct-11 22:00N 36°03' W 005°23'510.5
2017-Oct-11 21:30N 36°08' W 005°26'0 0.1
2017-Oct-11 19:42N 36°08' W 005°26'9 8.0
2017-Oct-11 18:32N 35°60' W 005°21'118.3
2017-Oct-11 18:30N 35°59' W 005°21'611.1
2017-Oct-11 18:00N 35°54' W 005°19'0 0.0
2017-Oct-11 17:30N 35°54' W 005°19'3 6.5
2017-Oct-11 17:00N 35°57' W 005°20'3 0.2
2017-Oct-11 00:00N 35°54' W 005°19'0 0.0
2017-Oct-10 23:30N 35°54' W 005°19'0 0.0
2017-Oct-10 23:00N 35°54' W 005°19'2 3.8
2017-Oct-10 22:31N 35°56' W 005°19'917.1
2017-Oct-10 22:00N 36°04' W 005°23'5 2.2
2017-Oct-10 19:43N 36°08' W 005°26'0 0.0
2017-Oct-10 19:27N 36°08' W 005°26'2 5.5
2017-Oct-10 19:00N 36°07' W 005°23'917.5
2017-Oct-10 18:31N 35°59' W 005°20'5 9.9
2017-Oct-10 18:00N 35°54' W 005°19'0 0.0
2017-Oct-10 17:31N 35°54' W 005°19'3 5.2
2017-Oct-10 17:01N 35°56' W 005°19'6 2.8
2017-Oct-10 14:43N 36°03' W 005°22'912.7
2017-Oct-10 14:00N 35°54' W 005°19'0 0.0
2017-Oct-10 13:30N 35°54' W 005°19'3 5.1
2017-Oct-10 13:00N 35°56' W 005°19'918.1
2017-Oct-10 12:30N 36°05' W 005°23'4 2.5
2017-Oct-10 10:48N 36°08' W 005°26'5 8.8
2017-Oct-10 10:15N 36°04' W 005°22'417.7
2017-Oct-10 10:00N 36°00' W 005°21'713.3
2017-Oct-10 09:31N 35°54' W 005°19'  

Dump ship's entire track history